createdAt,value
2019-05-23T00:00:40.014Z,67.40
2019-05-23T00:03:09.686Z,67.30
2019-05-23T00:05:40.041Z,67.30
2019-05-23T00:08:10.843Z,67.30
2019-05-23T00:10:41.149Z,67.20
2019-05-23T00:13:13.906Z,67.30
2019-05-23T00:15:43.962Z,67.40
2019-05-23T00:18:12.907Z,67.50
2019-05-23T00:20:42.301Z,67.50
2019-05-23T00:23:12.978Z,67.60
2019-05-23T00:25:44.500Z,67.80
2019-05-23T00:28:12.919Z,68.20
2019-05-23T00:30:46.011Z,68.40
2019-05-23T00:33:17.130Z,68.40
2019-05-23T00:35:46.666Z,68.40
2019-05-23T00:38:16.701Z,68.50
2019-05-23T00:40:46.480Z,68.80
2019-05-23T00:43:15.397Z,69.20
2019-05-23T00:45:43.832Z,69.40
2019-05-23T00:48:12.371Z,69.60
2019-05-23T00:50:40.938Z,70.00
2019-05-23T00:53:10.674Z,70.30
2019-05-23T00:55:39.721Z,70.50
2019-05-23T00:58:09.753Z,70.80
2019-05-23T01:00:39.842Z,71.20
2019-05-23T01:03:10.929Z,71.40
2019-05-23T01:05:39.618Z,71.40
2019-05-23T01:08:09.046Z,71.50
2019-05-23T01:10:38.051Z,71.80
2019-05-23T01:13:06.546Z,72.20
2019-05-23T01:15:36.011Z,72.40
2019-05-23T01:18:06.350Z,72.50
2019-05-23T01:20:36.414Z,72.50
2019-05-23T01:23:06.026Z,72.80
2019-05-23T01:25:35.386Z,72.90
2019-05-23T01:28:03.879Z,73.10
2019-05-23T01:30:42.930Z,73.30
2019-05-23T01:33:12.320Z,73.40
2019-05-23T01:35:41.684Z,73.50
2019-05-23T01:38:11.731Z,73.70
2019-05-23T01:40:41.434Z,73.70
2019-05-23T01:43:10.511Z,73.70
2019-05-23T01:45:40.167Z,73.80
2019-05-23T01:48:10.388Z,74.10
2019-05-23T01:50:39.044Z,74.20
2019-05-23T01:53:07.717Z,74.30
2019-05-23T01:55:36.615Z,74.60
2019-05-23T01:58:05.152Z,74.90
2019-05-23T02:00:34.297Z,75.00
2019-05-23T02:03:03.654Z,75.00
2019-05-23T02:05:33.122Z,75.00
2019-05-23T02:08:02.039Z,75.00
2019-05-23T02:10:31.605Z,75.10
2019-05-23T02:13:00.307Z,75.20
2019-05-23T02:15:30.149Z,75.10
2019-05-23T02:17:59.102Z,75.20
2019-05-23T02:20:29.222Z,76.20
2019-05-23T02:22:58.397Z,75.40
2019-05-23T02:25:29.311Z,75.50
2019-05-23T02:27:58.309Z,75.70
2019-05-23T02:30:34.568Z,75.80
2019-05-23T02:32:59.134Z,75.80
2019-05-23T02:35:28.371Z,75.70
2019-05-23T02:38:14.883Z,75.90
2019-05-23T02:40:54.439Z,76.10
2019-05-23T02:43:24.795Z,76.20
2019-05-23T02:46:02.859Z,76.40
2019-05-23T02:48:43.915Z,76.50
2019-05-23T02:51:27.434Z,76.50
2019-05-23T02:53:58.400Z,76.80
2019-05-23T02:56:29.889Z,76.90
2019-05-23T02:59:17.602Z,77.00
2019-05-23T03:02:02.607Z,77.30
2019-05-23T03:04:31.027Z,76.60
2019-05-23T03:07:02.764Z,77.00
2019-05-23T03:09:33.680Z,77.20
2019-05-23T03:12:04.134Z,77.30
2019-05-23T03:14:36.368Z,77.40
2019-05-23T03:17:08.266Z,77.60
2019-05-23T03:19:38.502Z,77.60
2019-05-23T03:22:25.630Z,78.20
2019-05-23T03:24:57.526Z,77.40
2019-05-23T03:27:26.383Z,77.50
2019-05-23T03:29:54.839Z,77.60
2019-05-23T03:32:26.787Z,77.80
2019-05-23T03:34:57.475Z,77.80
2019-05-23T03:37:25.969Z,77.70
2019-05-23T03:39:55.721Z,77.50
2019-05-23T03:42:24.512Z,77.50
2019-05-23T03:44:54.460Z,77.60
2019-05-23T03:47:24.696Z,77.70
2019-05-23T03:49:53.402Z,77.70
2019-05-23T03:52:21.884Z,77.60
2019-05-23T03:54:52.508Z,77.60
2019-05-23T03:57:25.605Z,77.80
2019-05-23T03:59:52.936Z,77.90
2019-05-23T04:02:23.159Z,77.80
2019-05-23T04:04:53.716Z,77.90
2019-05-23T04:07:22.913Z,78.00
2019-05-23T04:09:52.324Z,78.10
2019-05-23T04:12:21.127Z,78.10
2019-05-23T04:14:49.914Z,78.30
2019-05-23T04:17:18.789Z,78.40
2019-05-23T04:19:47.580Z,78.50
2019-05-23T04:22:35.957Z,78.60
2019-05-23T04:25:08.642Z,78.80
2019-05-23T04:27:38.100Z,78.90
2019-05-23T04:30:11.290Z,78.90
2019-05-23T04:32:39.977Z,79.10
2019-05-23T04:35:09.115Z,79.20
2019-05-23T04:37:37.518Z,79.30
2019-05-23T04:40:11.568Z,79.40
2019-05-23T04:42:40.082Z,79.40
2019-05-23T04:45:08.995Z,79.40
2019-05-23T04:47:38.306Z,79.30
2019-05-23T04:50:09.099Z,79.30
2019-05-23T04:52:38.910Z,79.20
2019-05-23T04:55:09.136Z,79.20
2019-05-23T04:57:38.274Z,79.20
2019-05-23T05:00:09.293Z,79.20
2019-05-23T05:02:37.028Z,79.30
2019-05-23T05:05:07.776Z,79.20
2019-05-23T05:07:37.592Z,79.00
2019-05-23T05:10:08.643Z,79.10
2019-05-23T05:12:37.249Z,79.80
2019-05-23T05:15:06.858Z,78.80
2019-05-23T05:17:35.773Z,78.60
2019-05-23T05:20:05.778Z,78.60
2019-05-23T05:22:35.176Z,78.40
2019-05-23T05:25:05.323Z,79.00
2019-05-23T05:27:34.641Z,77.90
2019-05-23T05:30:04.490Z,77.60
2019-05-23T05:32:44.243Z,77.40
2019-05-23T05:35:04.477Z,77.10
2019-05-23T05:37:33.226Z,76.60
2019-05-23T05:40:01.921Z,76.10
2019-05-23T05:42:31.148Z,75.50
2019-05-23T05:44:59.606Z,74.70
2019-05-23T05:47:28.352Z,73.90
2019-05-23T05:49:56.771Z,74.10
2019-05-23T05:52:25.194Z,72.90
2019-05-23T05:54:53.840Z,72.70
2019-05-23T05:57:22.310Z,72.30
2019-05-23T05:59:50.758Z,71.70
2019-05-23T06:02:19.489Z,71.30
2019-05-23T06:04:48.166Z,70.80
2019-05-23T06:07:30.373Z,70.30
2019-05-23T06:09:59.955Z,69.50
2019-05-23T06:12:28.717Z,68.60
2019-05-23T06:14:57.160Z,67.80
2019-05-23T06:17:25.632Z,67.50
2019-05-23T06:19:54.194Z,67.30
2019-05-23T06:22:23.697Z,66.80
2019-05-23T06:24:55.543Z,66.60
2019-05-23T06:27:23.080Z,66.40
2019-05-23T06:29:51.943Z,66.00
2019-05-23T06:32:22.622Z,65.90
2019-05-23T06:34:52.655Z,65.60
2019-05-23T06:37:21.138Z,66.00
2019-05-23T06:39:49.558Z,64.10
2019-05-23T06:42:18.275Z,63.50
2019-05-23T06:44:47.042Z,63.30
2019-05-23T06:47:15.457Z,62.80
2019-05-23T06:49:44.172Z,62.30
2019-05-23T06:52:12.668Z,61.00
2019-05-23T06:54:41.146Z,59.60
2019-05-23T06:57:10.388Z,58.60
2019-05-23T06:59:38.855Z,58.30
2019-05-23T07:02:07.339Z,58.10
2019-05-23T07:04:35.831Z,57.60
2019-05-23T07:07:04.815Z,57.40
2019-05-23T07:09:33.399Z,57.30
2019-05-23T07:12:02.868Z,56.60
2019-05-23T07:14:32.223Z,54.50
2019-05-23T07:17:00.902Z,53.50
2019-05-23T07:19:29.338Z,54.20
2019-05-23T07:21:57.815Z,53.80
2019-05-23T07:24:26.775Z,52.90
2019-05-23T07:26:57.072Z,52.40
2019-05-23T07:29:25.556Z,52.40
2019-05-23T07:31:57.529Z,52.00
2019-05-23T07:34:26.582Z,51.90
2019-05-23T07:36:55.549Z,51.00
2019-05-23T07:39:24.043Z,50.90
2019-05-23T07:41:52.916Z,50.00
2019-05-23T07:44:21.387Z,49.60
2019-05-23T07:46:50.345Z,48.60
2019-05-23T07:49:19.055Z,49.20
2019-05-23T07:51:47.621Z,48.90
2019-05-23T07:54:20.692Z,48.50
2019-05-23T07:56:49.574Z,48.50
2019-05-23T07:59:17.971Z,48.90
2019-05-23T08:01:49.363Z,47.70
2019-05-23T08:04:21.823Z,47.50
2019-05-23T08:06:49.200Z,45.80
2019-05-23T08:09:19.694Z,45.40
2019-05-23T08:11:48.583Z,45.10
2019-05-23T08:14:17.119Z,44.60
2019-05-23T08:16:45.670Z,44.60
2019-05-23T08:19:19.176Z,43.60
2019-05-23T08:21:45.236Z,43.30
2019-05-23T08:24:15.610Z,43.70
2019-05-23T08:26:45.337Z,44.40
2019-05-23T08:29:25.411Z,45.50
2019-05-23T08:31:44.250Z,45.00
2019-05-23T08:34:12.737Z,45.00
2019-05-23T08:36:41.142Z,44.60
2019-05-23T08:39:10.569Z,44.30
2019-05-23T08:41:39.536Z,43.00
2019-05-23T08:44:11.406Z,42.50
2019-05-23T08:46:39.686Z,41.80
2019-05-23T08:49:08.942Z,41.00
2019-05-23T08:51:37.390Z,39.80
2019-05-23T08:54:06.252Z,38.60
2019-05-23T08:56:34.879Z,38.60
2019-05-23T08:59:05.706Z,38.50
2019-05-23T09:01:34.740Z,38.00
2019-05-23T09:04:04.796Z,38.40
2019-05-23T09:06:34.434Z,38.80
2019-05-23T09:09:26.629Z,38.70
2019-05-23T09:11:35.442Z,39.10
2019-05-23T09:14:04.489Z,37.50
2019-05-23T09:16:33.351Z,37.50
2019-05-23T09:19:02.110Z,37.10
2019-05-23T09:21:30.530Z,36.40
2019-05-23T09:23:59.277Z,35.70
2019-05-23T09:26:27.915Z,35.60
2019-05-23T09:28:56.508Z,35.70
2019-05-23T09:31:25.089Z,37.00
2019-05-23T09:33:53.591Z,37.70
2019-05-23T09:36:22.001Z,37.00
2019-05-23T09:38:50.465Z,35.30
2019-05-23T09:41:19.115Z,34.50
2019-05-23T09:43:47.868Z,34.90
2019-05-23T09:46:16.273Z,34.60
2019-05-23T09:48:44.693Z,35.20
2019-05-23T09:51:13.163Z,35.50
2019-05-23T09:53:47.054Z,35.90
2019-05-23T09:56:11.894Z,35.50
2019-05-23T09:58:44.455Z,35.50
2019-05-23T10:01:14.450Z,34.90
2019-05-23T10:03:42.860Z,34.90
2019-05-23T10:06:11.288Z,35.00
2019-05-23T10:08:39.686Z,35.20
2019-05-23T10:11:08.090Z,35.70
2019-05-23T10:13:39.439Z,36.10
2019-05-23T10:16:08.541Z,35.60
2019-05-23T10:18:36.795Z,34.80
2019-05-23T10:21:05.536Z,35.30
2019-05-23T10:23:34.237Z,34.80
2019-05-23T10:26:03.355Z,34.20
2019-05-23T10:28:31.843Z,33.10
2019-05-23T10:31:00.239Z,33.10
2019-05-23T10:33:28.717Z,32.60
2019-05-23T10:36:00.746Z,32.10
2019-05-23T10:38:29.402Z,31.90
2019-05-23T10:40:58.063Z,32.00
2019-05-23T10:43:26.526Z,31.60
2019-05-23T10:45:55.112Z,32.00
2019-05-23T10:48:23.895Z,32.80
2019-05-23T10:50:52.689Z,33.40
2019-05-23T10:53:21.630Z,33.40
2019-05-23T10:55:50.129Z,33.90
2019-05-23T10:58:18.639Z,34.50
2019-05-23T11:00:47.284Z,34.80
2019-05-23T11:03:15.911Z,34.50
2019-05-23T11:05:44.455Z,34.60
2019-05-23T11:08:12.950Z,35.00
2019-05-23T11:10:41.859Z,35.50
2019-05-23T11:13:10.427Z,35.30
2019-05-23T11:15:39.344Z,35.20
2019-05-23T11:18:08.306Z,34.80
2019-05-23T11:20:36.706Z,34.60
2019-05-23T11:23:05.848Z,34.20
2019-05-23T11:25:36.573Z,33.80
2019-05-23T11:28:05.001Z,34.10
2019-05-23T11:30:50.102Z,34.80
2019-05-23T11:33:18.944Z,34.60
2019-05-23T11:35:48.637Z,34.60
2019-05-23T11:38:17.263Z,34.90
2019-05-23T11:40:45.990Z,35.50
2019-05-23T11:43:14.390Z,34.70
2019-05-23T11:45:47.220Z,34.30
2019-05-23T11:48:16.643Z,34.80
2019-05-23T11:50:45.618Z,35.00
2019-05-23T11:53:14.795Z,35.00
2019-05-23T11:55:43.611Z,35.50
2019-05-23T11:58:12.350Z,35.70
2019-05-23T12:01:32.675Z,35.70
2019-05-23T12:04:05.490Z,35.80
2019-05-23T12:06:54.261Z,36.10
2019-05-23T12:09:12.125Z,36.20
2019-05-23T12:11:42.642Z,36.30
2019-05-23T12:14:11.432Z,36.10
2019-05-23T12:16:40.314Z,35.60
2019-05-23T12:19:09.095Z,35.20
2019-05-23T12:21:37.948Z,35.30
2019-05-23T12:24:06.437Z,35.60
2019-05-23T12:26:35.351Z,35.10
2019-05-23T12:29:04.896Z,35.10
2019-05-23T12:31:33.560Z,35.30
2019-05-23T12:34:02.040Z,35.50
2019-05-23T12:36:30.594Z,35.40
2019-05-23T12:38:59.059Z,34.90
2019-05-23T12:41:27.544Z,34.20
2019-05-23T12:43:55.931Z,33.70
2019-05-23T12:46:24.348Z,33.40
2019-05-23T12:49:09.397Z,33.40
2019-05-23T12:51:42.462Z,33.40
2019-05-23T12:54:10.965Z,33.80
2019-05-23T12:56:39.743Z,34.00
2019-05-23T12:59:08.323Z,34.30
2019-05-23T13:01:38.759Z,34.40
2019-05-23T13:04:10.130Z,34.30
2019-05-23T13:06:38.288Z,33.80
2019-05-23T13:09:08.818Z,33.60
2019-05-23T13:11:38.234Z,33.20
2019-05-23T13:14:08.347Z,33.10
2019-05-23T13:16:36.914Z,33.10
2019-05-23T13:19:05.772Z,33.60
2019-05-23T13:21:35.470Z,33.90
2019-05-23T13:24:04.411Z,33.70
2019-05-23T13:26:33.084Z,33.90
2019-05-23T13:29:01.481Z,34.10
2019-05-23T13:31:30.192Z,34.40
2019-05-23T13:33:58.655Z,34.70
2019-05-23T13:36:27.134Z,34.80
2019-05-23T13:38:55.531Z,35.00
2019-05-23T13:41:24.284Z,35.10
2019-05-23T13:43:52.915Z,35.30
2019-05-23T13:46:21.303Z,35.30
2019-05-23T13:48:49.771Z,35.20
2019-05-23T13:51:18.407Z,35.20
2019-05-23T13:53:47.157Z,35.30
2019-05-23T13:56:16.709Z,34.80
2019-05-23T13:58:45.193Z,34.70
2019-05-23T14:01:13.642Z,34.40
2019-05-23T14:03:42.551Z,34.30
2019-05-23T14:06:12.250Z,34.20
2019-05-23T14:08:40.669Z,34.20
2019-05-23T14:11:09.057Z,34.10
2019-05-23T14:13:37.621Z,33.50
2019-05-23T14:16:06.775Z,33.90
2019-05-23T14:18:36.610Z,34.10
2019-05-23T14:21:06.235Z,34.00
2019-05-23T14:23:35.216Z,34.00
2019-05-23T14:26:04.536Z,33.70
2019-05-23T14:28:32.975Z,33.60
2019-05-23T14:31:03.419Z,33.50
2019-05-23T14:33:45.193Z,33.80
2019-05-23T14:36:32.483Z,33.70
2019-05-23T14:39:02.810Z,33.60
2019-05-23T14:41:49.448Z,33.60
2019-05-23T14:44:18.286Z,33.00
2019-05-23T14:46:53.983Z,33.30
2019-05-23T14:49:24.030Z,33.40
2019-05-23T14:52:12.342Z,33.30
2019-05-23T14:54:42.386Z,33.00
2019-05-23T14:57:11.427Z,33.10
2019-05-23T14:59:40.284Z,33.10
2019-05-23T15:02:10.405Z,32.80
2019-05-23T15:04:38.976Z,32.90
2019-05-23T15:07:07.361Z,32.80
2019-05-23T15:09:36.104Z,32.80
2019-05-23T15:12:06.274Z,33.10
2019-05-23T15:14:34.879Z,33.00
2019-05-23T15:17:03.918Z,32.80
2019-05-23T15:19:42.111Z,32.40
2019-05-23T15:22:02.518Z,32.30
2019-05-23T15:24:31.395Z,31.90
2019-05-23T15:27:00.204Z,32.10
2019-05-23T15:29:29.514Z,32.00
2019-05-23T15:32:02.097Z,32.00
2019-05-23T15:34:28.245Z,32.30
2019-05-23T15:36:59.387Z,32.50
2019-05-23T15:39:28.048Z,32.30
2019-05-23T15:41:56.492Z,32.40
2019-05-23T15:44:28.543Z,32.60
2019-05-23T15:46:55.039Z,33.00
2019-05-23T15:49:23.751Z,33.20
2019-05-23T15:52:05.572Z,33.40
2019-05-23T15:54:41.430Z,33.10
2019-05-23T15:57:11.544Z,32.50
2019-05-23T15:59:44.607Z,32.70
2019-05-23T16:02:20.818Z,32.90
2019-05-23T16:04:50.342Z,33.60
2019-05-23T16:07:19.399Z,32.80
2019-05-23T16:09:47.981Z,32.70
2019-05-23T16:12:16.947Z,32.70
2019-05-23T16:14:45.795Z,32.70
2019-05-23T16:17:14.560Z,32.80
2019-05-23T16:19:43.055Z,32.50
2019-05-23T16:22:12.042Z,32.50
2019-05-23T16:24:40.787Z,32.90
2019-05-23T16:27:09.590Z,33.00
2019-05-23T16:29:38.763Z,33.00
2019-05-23T16:32:07.189Z,33.20
2019-05-23T16:34:35.855Z,33.20
2019-05-23T16:37:04.625Z,33.10
2019-05-23T16:39:46.608Z,32.90
2019-05-23T16:42:04.810Z,32.80
2019-05-23T16:44:33.270Z,32.80
2019-05-23T16:47:01.724Z,32.70
2019-05-23T16:49:30.176Z,32.60
2019-05-23T16:51:58.706Z,32.70
2019-05-23T16:54:28.728Z,32.80
2019-05-23T16:57:01.739Z,32.80
2019-05-23T16:59:32.071Z,32.60
2019-05-23T17:02:18.162Z,32.60
2019-05-23T17:04:48.270Z,32.60
2019-05-23T17:07:32.877Z,32.30
2019-05-23T17:10:11.754Z,32.10
2019-05-23T17:12:47.726Z,32.20
2019-05-23T17:15:20.955Z,32.10
2019-05-23T17:18:02.645Z,31.70
2019-05-23T17:20:43.647Z,31.30
2019-05-23T17:23:29.087Z,31.30
2019-05-23T17:25:59.137Z,31.10
2019-05-23T17:28:29.595Z,31.30
2019-05-23T17:31:05.915Z,31.20
2019-05-23T17:33:36.977Z,31.20
2019-05-23T17:36:05.231Z,31.30
2019-05-23T17:38:34.044Z,31.30
2019-05-23T17:41:02.811Z,31.20
2019-05-23T17:43:31.382Z,30.90
2019-05-23T17:45:59.906Z,30.60
2019-05-23T17:48:28.351Z,30.20
2019-05-23T17:50:57.110Z,30.00
2019-05-23T17:53:25.917Z,29.90
2019-05-23T17:55:55.048Z,30.00
2019-05-23T17:58:24.158Z,30.00
2019-05-23T18:00:52.560Z,29.90
2019-05-23T18:03:22.159Z,30.10
2019-05-23T18:05:50.857Z,30.20
2019-05-23T18:08:19.424Z,30.10
2019-05-23T18:10:48.291Z,30.40
2019-05-23T18:13:16.792Z,30.40
2019-05-23T18:15:46.013Z,30.40
2019-05-23T18:18:14.508Z,30.50
2019-05-23T18:20:44.110Z,30.60
2019-05-23T18:23:13.003Z,30.60
2019-05-23T18:25:41.945Z,30.90
2019-05-23T18:28:12.145Z,31.00
2019-05-23T18:30:45.186Z,31.00
2019-05-23T18:33:15.245Z,31.10
2019-05-23T18:35:43.900Z,31.50
2019-05-23T18:38:12.443Z,31.60
2019-05-23T18:40:41.303Z,31.80
2019-05-23T18:43:10.256Z,31.90
2019-05-23T18:45:40.533Z,32.10
2019-05-23T18:48:08.998Z,32.50
2019-05-23T18:50:38.008Z,32.70
2019-05-23T18:53:07.307Z,33.00
2019-05-23T18:55:35.732Z,33.30
2019-05-23T18:58:04.614Z,34.30
2019-05-23T19:00:55.808Z,34.00
2019-05-23T19:03:24.355Z,34.30
2019-05-23T19:05:53.040Z,34.50
2019-05-23T19:08:22.623Z,34.70
2019-05-23T19:10:51.267Z,35.00
2019-05-23T19:13:19.967Z,35.30
2019-05-23T19:15:48.597Z,35.50
2019-05-23T19:18:17.001Z,35.90
2019-05-23T19:20:45.764Z,36.10
2019-05-23T19:23:14.836Z,36.40
2019-05-23T19:25:44.559Z,36.60
2019-05-23T19:28:13.951Z,36.90
2019-05-23T19:30:42.368Z,37.90
2019-05-23T19:33:11.043Z,37.40
2019-05-23T19:35:39.790Z,37.70
2019-05-23T19:38:09.298Z,37.90
2019-05-23T19:40:38.004Z,38.00
2019-05-23T19:43:07.497Z,38.20
2019-05-23T19:45:36.240Z,38.50
2019-05-23T19:48:05.301Z,38.70
2019-05-23T19:50:33.945Z,38.90
2019-05-23T19:53:02.365Z,39.10
2019-05-23T19:55:32.651Z,39.30
2019-05-23T19:58:01.492Z,39.50
2019-05-23T20:00:31.936Z,39.70
2019-05-23T20:03:03.928Z,39.90
2019-05-23T20:05:32.852Z,40.10
2019-05-23T20:08:01.353Z,40.50
2019-05-23T20:10:30.597Z,40.80
2019-05-23T20:12:59.078Z,41.10
2019-05-23T20:15:28.163Z,41.50
2019-05-23T20:17:56.622Z,41.80
2019-05-23T20:20:25.845Z,42.10
2019-05-23T20:22:54.370Z,42.40
2019-05-23T20:25:24.544Z,42.80
2019-05-23T20:27:53.312Z,43.00
2019-05-23T20:30:46.102Z,43.30
2019-05-23T20:33:15.691Z,43.60
2019-05-23T20:35:44.393Z,43.80
2019-05-23T20:38:13.880Z,44.00
2019-05-23T20:40:42.354Z,44.10
2019-05-23T20:43:11.238Z,44.30
2019-05-23T20:45:39.743Z,44.30
2019-05-23T20:48:08.886Z,44.50
2019-05-23T20:50:37.471Z,44.60
2019-05-23T20:53:05.936Z,44.80
2019-05-23T20:55:35.345Z,45.00
2019-05-23T20:58:04.475Z,45.10
2019-05-23T21:00:34.598Z,45.20
2019-05-23T21:03:03.830Z,45.20
2019-05-23T21:05:32.595Z,45.20
2019-05-23T21:08:01.382Z,45.20
2019-05-23T21:10:35.507Z,45.30
2019-05-23T21:13:03.905Z,45.40
2019-05-23T21:15:32.310Z,45.40
2019-05-23T21:18:00.729Z,45.40
2019-05-23T21:20:29.198Z,45.50
2019-05-23T21:22:58.039Z,45.90
2019-05-23T21:25:27.279Z,46.00
2019-05-23T21:27:56.149Z,46.10
2019-05-23T21:30:24.575Z,46.40
2019-05-23T21:32:53.055Z,46.20
2019-05-23T21:35:21.519Z,46.30
2019-05-23T21:37:50.293Z,46.40
2019-05-23T21:40:37.599Z,46.50
2019-05-23T21:43:06.005Z,46.90
2019-05-23T21:45:34.876Z,47.10
2019-05-23T21:48:04.722Z,47.50
2019-05-23T21:50:33.261Z,48.40
2019-05-23T21:53:02.025Z,47.80
2019-05-23T21:55:41.256Z,48.10
2019-05-23T21:58:11.019Z,48.20
2019-05-23T22:01:07.807Z,48.50
2019-05-23T22:03:55.468Z,48.80
2019-05-23T22:06:27.141Z,48.80
2019-05-23T22:08:55.880Z,49.20
2019-05-23T22:11:24.406Z,49.30
2019-05-23T22:13:52.909Z,49.40
2019-05-23T22:16:21.493Z,49.50
2019-05-23T22:18:49.916Z,49.60
2019-05-23T22:36:09.819Z,49.90
2019-05-23T22:38:38.294Z,50.40
2019-05-23T22:41:06.707Z,50.50
2019-05-23T22:43:35.301Z,50.60
2019-05-23T22:46:03.782Z,50.70
2019-05-23T22:48:32.260Z,50.90
2019-05-23T22:51:00.666Z,51.80
2019-05-23T22:53:29.088Z,51.30
2019-05-23T22:56:18.391Z,51.50
2019-05-23T22:58:46.814Z,51.70
2019-05-23T23:01:15.862Z,51.70
2019-05-23T23:03:44.322Z,52.00
2019-05-23T23:06:12.886Z,52.30
2019-05-23T23:08:41.305Z,52.40
2019-05-23T23:11:10.351Z,52.50
2019-05-23T23:13:39.380Z,52.50
2019-05-23T23:16:09.255Z,52.90
2019-05-23T23:18:37.670Z,53.30
2019-05-23T23:21:06.066Z,53.30
2019-05-23T23:23:34.484Z,53.30
2019-05-23T23:26:03.183Z,53.00
2019-05-23T23:28:31.722Z,53.00
2019-05-23T23:31:00.117Z,52.90
2019-05-23T23:33:28.542Z,52.90
2019-05-23T23:35:56.976Z,52.80
2019-05-23T23:38:25.394Z,52.80
2019-05-23T23:40:54.131Z,52.80
2019-05-23T23:43:22.547Z,53.00
2019-05-23T23:46:08.924Z,53.10
2019-05-23T23:48:55.378Z,53.30
2019-05-23T23:51:41.877Z,53.90
2019-05-23T23:54:28.222Z,53.30
2019-05-23T23:57:15.235Z,53.40
2019-05-23T23:59:42.965Z,53.70
